createdAt,value
2023-02-11T00:00:14.851Z,50.65
2023-02-11T00:02:41.874Z,49.00
2023-02-11T00:05:08.916Z,52.40
2023-02-11T00:07:35.856Z,49.80
2023-02-11T00:10:03.055Z,50.00
2023-02-11T00:12:30.005Z,53.65
2023-02-11T00:14:57.031Z,50.90
2023-02-11T00:17:23.938Z,44.47
2023-02-11T00:19:51.677Z,38.83
2023-02-11T00:22:18.660Z,52.45
2023-02-11T00:24:45.610Z,54.63
2023-02-11T00:27:12.572Z,42.25
2023-02-11T00:29:39.594Z,52.20
2023-02-11T00:32:06.637Z,47.80
2023-02-11T00:34:33.746Z,48.47
2023-02-11T00:37:03.070Z,49.42
2023-02-11T00:39:30.256Z,43.75
2023-02-11T00:41:57.716Z,44.72
2023-02-11T00:44:24.678Z,52.42
2023-02-11T00:46:51.689Z,48.80
2023-02-11T00:49:18.728Z,42.83
2023-02-11T00:51:45.776Z,51.42
2023-02-11T00:54:12.809Z,49.10
2023-02-11T00:56:39.797Z,47.47
2023-02-11T00:59:06.696Z,51.35
2023-02-11T01:01:34.789Z,46.03
2023-02-11T01:04:01.963Z,56.53
2023-02-11T01:06:28.936Z,45.90
2023-02-11T01:08:55.887Z,47.95
2023-02-11T01:11:22.903Z,40.08
2023-02-11T01:13:50.174Z,45.90
2023-02-11T01:16:17.429Z,49.42
2023-02-11T01:18:45.625Z,42.05
2023-02-11T01:21:12.632Z,46.92
2023-02-11T01:23:39.672Z,46.35
2023-02-11T01:26:06.587Z,45.22
2023-02-11T01:28:33.744Z,45.42
2023-02-11T01:31:01.675Z,44.78
2023-02-11T01:33:28.906Z,40.67
2023-02-11T01:35:55.778Z,41.63
2023-02-11T01:38:25.110Z,56.25
2023-02-11T01:40:55.003Z,41.42
2023-02-11T01:43:23.394Z,42.55
2023-02-11T01:46:01.600Z,42.17
2023-02-11T01:48:36.425Z,44.28
2023-02-11T01:51:07.046Z,49.67
2023-02-11T01:53:54.072Z,43.42
2023-02-11T01:56:40.179Z,39.75
2023-02-11T01:59:11.692Z,48.22
2023-02-11T02:01:38.684Z,45.40
2023-02-11T02:04:05.687Z,42.80
2023-02-11T02:06:36.275Z,42.15
2023-02-11T02:09:11.524Z,36.47
2023-02-11T02:11:38.482Z,45.70
2023-02-11T02:14:05.469Z,43.20
2023-02-11T02:16:34.754Z,36.83
2023-02-11T02:19:26.886Z,50.88
2023-02-11T02:21:53.770Z,44.78
2023-02-11T02:24:56.646Z,44.83
2023-02-11T02:27:45.019Z,43.95
2023-02-11T02:30:40.145Z,34.35
2023-02-11T02:33:23.047Z,36.15
2023-02-11T02:35:55.290Z,40.17
2023-02-11T02:38:30.666Z,42.80
2023-02-11T02:41:03.961Z,43.92
2023-02-11T02:43:30.942Z,41.92
2023-02-11T02:46:19.704Z,44.97
2023-02-11T02:48:47.168Z,45.38
2023-02-11T02:51:37.899Z,40.13
2023-02-11T02:54:41.375Z,33.63
2023-02-11T02:57:17.764Z,25.80
2023-02-11T03:00:10.865Z,45.03
2023-02-11T03:02:40.786Z,41.42
2023-02-11T03:05:45.268Z,36.85
2023-02-11T03:08:17.991Z,40.42
2023-02-11T03:10:50.039Z,37.60
2023-02-11T03:13:18.222Z,45.80
2023-02-11T03:15:46.930Z,45.20
2023-02-11T03:18:15.882Z,37.72
2023-02-11T03:20:43.815Z,44.53
2023-02-11T03:23:10.668Z,43.30
2023-02-11T03:25:49.739Z,44.83
2023-02-11T03:28:33.089Z,46.13
2023-02-11T03:31:27.287Z,36.63
2023-02-11T03:34:12.797Z,45.42
2023-02-11T03:36:47.272Z,47.17
2023-02-11T03:39:16.620Z,44.50
2023-02-11T03:41:43.579Z,44.72
2023-02-11T03:44:10.515Z,41.60
2023-02-11T03:46:38.120Z,44.25
2023-02-11T03:49:08.778Z,49.30
2023-02-11T03:51:35.711Z,39.67
2023-02-11T03:54:04.018Z,42.90
2023-02-11T03:56:33.174Z,39.83
2023-02-11T03:59:00.120Z,42.47
2023-02-11T04:01:27.114Z,37.85
2023-02-11T04:03:54.062Z,48.28
2023-02-11T04:06:21.086Z,49.47
2023-02-11T04:08:48.135Z,44.47
2023-02-11T04:11:15.087Z,41.58
2023-02-11T04:13:42.021Z,44.85
2023-02-11T04:16:09.080Z,46.30
2023-02-11T04:18:36.200Z,45.03
2023-02-11T04:21:03.156Z,44.50
2023-02-11T04:23:30.068Z,49.40
2023-02-11T04:25:57.019Z,47.55
2023-02-11T04:28:24.109Z,42.88
2023-02-11T04:30:51.392Z,44.10
2023-02-11T04:33:18.352Z,41.63
2023-02-11T04:35:45.291Z,43.53
2023-02-11T04:38:12.237Z,44.00
2023-02-11T04:40:39.291Z,50.30
2023-02-11T04:43:06.373Z,59.92
2023-02-11T04:45:33.883Z,50.28
2023-02-11T04:48:03.084Z,37.85
2023-02-11T04:50:30.007Z,42.13
2023-02-11T04:52:57.021Z,56.80
2023-02-11T04:55:23.907Z,57.90
2023-02-11T04:57:50.843Z,54.90
2023-02-11T05:00:17.865Z,51.97
2023-02-11T05:02:44.792Z,47.45
2023-02-11T05:05:11.737Z,40.88
2023-02-11T05:07:38.655Z,39.58
2023-02-11T05:10:05.838Z,47.53
2023-02-11T05:12:32.813Z,43.15
2023-02-11T05:14:59.737Z,50.70
2023-02-11T05:17:26.723Z,51.10
2023-02-11T05:19:53.684Z,49.63
2023-02-11T05:22:22.055Z,47.03
2023-02-11T05:24:49.571Z,45.47
2023-02-11T05:27:16.549Z,49.10
2023-02-11T05:29:43.441Z,55.15
2023-02-11T05:32:10.441Z,50.40
2023-02-11T05:34:37.696Z,48.63
2023-02-11T05:37:04.677Z,47.38
2023-02-11T05:39:31.631Z,45.92
2023-02-11T05:41:58.670Z,47.75
2023-02-11T05:44:25.620Z,46.22
2023-02-11T05:46:52.608Z,52.05
2023-02-11T05:49:19.558Z,43.65
2023-02-11T05:51:46.600Z,49.22
2023-02-11T05:54:13.894Z,42.45
2023-02-11T05:56:43.123Z,46.00
2023-02-11T05:59:13.588Z,52.35
2023-02-11T06:01:40.650Z,50.55
2023-02-11T06:04:07.589Z,45.92
2023-02-11T06:06:34.526Z,46.17
2023-02-11T06:09:01.538Z,43.60
2023-02-11T06:11:28.506Z,52.70
2023-02-11T06:13:55.517Z,49.40
2023-02-11T06:16:22.579Z,49.38
2023-02-11T06:18:49.518Z,45.13
2023-02-11T06:21:16.434Z,48.03
2023-02-11T06:23:43.745Z,46.28
2023-02-11T06:26:17.500Z,47.22
2023-02-11T06:28:44.615Z,48.17
2023-02-11T06:31:12.102Z,50.90
2023-02-11T06:33:39.295Z,45.28
2023-02-11T06:36:16.742Z,43.55
2023-02-11T06:38:43.735Z,46.97
2023-02-11T06:41:13.874Z,53.40
2023-02-11T06:43:40.998Z,48.78
2023-02-11T06:46:08.055Z,47.05
2023-02-11T06:48:35.074Z,47.92
2023-02-11T06:51:06.202Z,42.13
2023-02-11T06:53:35.875Z,41.70
2023-02-11T06:56:07.418Z,39.33
2023-02-11T07:01:06.785Z,41.30
2023-02-11T07:03:36.174Z,37.00
2023-02-11T07:06:05.524Z,41.00
2023-02-11T07:08:35.960Z,41.03
2023-02-11T07:11:11.874Z,41.80
2023-02-11T07:13:38.909Z,43.78
2023-02-11T07:16:07.383Z,42.85
2023-02-11T07:18:34.427Z,48.00
2023-02-11T07:21:05.689Z,40.70
2023-02-11T07:23:33.152Z,46.65
2023-02-11T07:26:09.838Z,42.17
2023-02-11T07:28:37.514Z,36.78
2023-02-11T07:31:12.316Z,47.67
2023-02-11T07:33:39.337Z,38.70
2023-02-11T07:36:07.133Z,29.50
2023-02-11T07:38:34.378Z,41.63
2023-02-11T07:41:02.289Z,37.38
2023-02-11T07:43:29.457Z,41.00
2023-02-11T07:45:56.580Z,36.70
2023-02-11T07:48:23.522Z,39.35
2023-02-11T07:50:50.631Z,27.92
2023-02-11T07:53:17.612Z,40.95
2023-02-11T07:55:44.662Z,46.80
2023-02-11T07:58:11.536Z,42.50
2023-02-11T08:00:38.534Z,38.60
2023-02-11T08:03:07.891Z,40.05
2023-02-11T08:05:38.240Z,36.85
2023-02-11T08:08:05.226Z,43.42
2023-02-11T08:10:32.285Z,40.78
2023-02-11T08:12:59.215Z,40.80
2023-02-11T08:15:26.259Z,41.47
2023-02-11T08:17:53.163Z,40.45
2023-02-11T08:20:20.246Z,42.47
2023-02-11T08:22:47.188Z,37.50
2023-02-11T08:25:14.147Z,38.75
2023-02-11T08:27:41.102Z,36.72
2023-02-11T08:30:08.491Z,39.95
2023-02-11T08:32:35.633Z,40.85
2023-02-11T08:35:02.579Z,36.05
2023-02-11T08:37:32.008Z,36.55
2023-02-11T08:39:59.923Z,32.55
2023-02-11T08:42:26.918Z,37.45
2023-02-11T08:44:53.811Z,21.23
2023-02-11T08:47:22.734Z,29.10
2023-02-11T08:49:49.800Z,36.13
2023-02-11T08:52:16.704Z,26.00
2023-02-11T08:54:43.612Z,23.40
2023-02-11T08:57:10.625Z,36.20
2023-02-11T08:59:40.079Z,26.00
2023-02-11T09:02:07.645Z,36.28
2023-02-11T09:04:34.629Z,37.10
2023-02-11T09:07:01.540Z,36.15
2023-02-11T09:09:28.561Z,42.80
2023-02-11T09:11:57.375Z,32.33
2023-02-11T09:14:24.761Z,38.35
2023-02-11T09:16:51.979Z,23.15
2023-02-11T09:19:19.238Z,34.20
2023-02-11T09:21:46.697Z,34.88
2023-02-11T09:24:13.708Z,34.40
2023-02-11T09:26:41.391Z,39.58
2023-02-11T09:29:08.386Z,33.10
2023-02-11T09:31:35.380Z,31.60
2023-02-11T09:34:04.464Z,31.27
2023-02-11T09:36:33.097Z,30.42
2023-02-11T09:39:01.077Z,31.58
2023-02-11T09:42:00.027Z,26.25
2023-02-11T09:44:28.538Z,26.33
2023-02-11T09:47:03.052Z,29.98
2023-02-11T09:49:36.503Z,29.67
2023-02-11T09:52:06.693Z,27.00
2023-02-11T09:54:59.264Z,31.05
2023-02-11T09:57:33.488Z,32.78
2023-02-11T10:00:01.641Z,29.20
2023-02-11T10:03:04.817Z,32.85
2023-02-11T10:05:59.223Z,29.67
2023-02-11T10:08:26.129Z,33.30
2023-02-11T10:10:57.825Z,23.65
2023-02-11T10:14:04.257Z,32.78
2023-02-11T10:16:58.037Z,30.27
2023-02-11T10:19:27.837Z,23.60
2023-02-11T10:22:15.700Z,29.25
2023-02-11T10:24:42.840Z,27.60
2023-02-11T10:27:16.778Z,27.15
2023-02-11T10:29:53.574Z,25.15
2023-02-11T10:32:40.268Z,26.42
2023-02-11T10:35:18.878Z,27.25
2023-02-11T10:37:45.836Z,21.98
2023-02-11T10:40:20.516Z,24.95
2023-02-11T10:42:55.468Z,22.48
2023-02-11T10:45:43.846Z,16.88
2023-02-11T10:48:39.356Z,21.98
2023-02-11T10:51:29.128Z,20.58
2023-02-11T10:54:05.396Z,16.98
2023-02-11T10:56:36.586Z,17.45
2023-02-11T11:01:53.229Z,19.20
2023-02-11T11:04:37.392Z,22.00
2023-02-11T11:07:22.473Z,19.40
2023-02-11T11:09:49.363Z,15.05
2023-02-11T11:12:57.588Z,18.33
2023-02-11T11:15:26.529Z,22.23
2023-02-11T11:18:20.910Z,25.80
2023-02-11T11:20:56.171Z,24.38
2023-02-11T11:23:24.523Z,21.33
2023-02-11T11:26:11.374Z,24.33
2023-02-11T11:28:50.187Z,23.17
2023-02-11T11:31:23.717Z,13.27
2023-02-11T11:33:51.627Z,21.70
2023-02-11T11:36:21.479Z,20.85
2023-02-11T11:39:02.398Z,22.13
2023-02-11T11:41:31.283Z,22.20
2023-02-11T11:44:25.849Z,39.10
2023-02-11T11:47:37.396Z,29.13
2023-02-11T11:50:27.497Z,127.53
2023-02-11T11:53:04.561Z,45.50
2023-02-11T11:55:39.214Z,25.05
2023-02-11T11:58:09.662Z,22.73
2023-02-11T12:00:58.313Z,14.82
2023-02-11T12:03:32.642Z,23.52
2023-02-11T12:06:14.570Z,16.25
2023-02-11T12:08:55.657Z,22.17
2023-02-11T12:11:44.336Z,24.02
2023-02-11T12:14:33.632Z,25.10
2023-02-11T12:17:11.454Z,20.33
2023-02-11T12:19:41.337Z,20.77
2023-02-11T12:22:36.405Z,21.35
2023-02-11T12:25:21.574Z,22.85
2023-02-11T12:28:14.549Z,30.17
2023-02-11T12:31:00.072Z,26.73
2023-02-11T12:33:44.800Z,20.13
2023-02-11T12:36:24.332Z,22.48
2023-02-11T12:38:57.112Z,26.60
2023-02-11T12:41:56.616Z,23.05
2023-02-11T12:44:51.842Z,116.50
2023-02-11T12:47:25.684Z,76.80
2023-02-11T12:49:55.232Z,63.65
2023-02-11T12:52:51.121Z,42.65
2023-02-11T12:55:28.440Z,17.33
2023-02-11T12:57:56.940Z,76.60
2023-02-11T13:00:25.622Z,21.00
2023-02-11T13:03:11.302Z,58.88
2023-02-11T13:05:41.727Z,21.05
2023-02-11T13:08:17.092Z,9.35
2023-02-11T13:10:50.995Z,23.15
2023-02-11T13:13:39.440Z,20.38
2023-02-11T13:16:08.150Z,15.48
2023-02-11T13:18:49.705Z,21.92
2023-02-11T13:21:16.603Z,22.52
2023-02-11T13:24:02.917Z,18.63
2023-02-11T13:26:43.812Z,18.75
2023-02-11T13:29:34.763Z,16.65
2023-02-11T13:32:10.636Z,19.25
2023-02-11T13:34:43.699Z,19.42
2023-02-11T13:37:23.356Z,18.45
2023-02-11T13:40:01.511Z,17.95
2023-02-11T13:42:29.305Z,19.02
2023-02-11T13:44:56.254Z,14.95
2023-02-11T13:47:33.414Z,22.77
2023-02-11T13:50:00.861Z,17.23
2023-02-11T13:52:30.435Z,15.98
2023-02-11T13:55:02.061Z,17.98
2023-02-11T13:57:32.294Z,21.75
2023-02-11T14:00:00.990Z,21.08
2023-02-11T14:02:54.212Z,17.35
2023-02-11T14:05:48.657Z,20.98
2023-02-11T14:08:37.649Z,17.27
2023-02-11T14:11:10.962Z,14.80
2023-02-11T14:14:16.415Z,17.63
2023-02-11T14:16:58.426Z,20.67
2023-02-11T14:19:37.926Z,17.60
2023-02-11T14:22:18.416Z,23.00
2023-02-11T14:24:53.360Z,16.42
2023-02-11T14:27:42.190Z,20.15
2023-02-11T14:30:15.112Z,21.77
2023-02-11T14:33:11.465Z,20.48
2023-02-11T14:35:50.482Z,21.38
2023-02-11T14:38:17.357Z,18.73
2023-02-11T14:40:50.233Z,19.95
2023-02-11T14:43:20.374Z,18.00
2023-02-11T14:45:50.661Z,20.85
2023-02-11T14:48:18.848Z,24.30
2023-02-11T14:50:48.622Z,19.08
2023-02-11T14:53:21.608Z,24.60
2023-02-11T14:55:52.594Z,20.85
2023-02-11T15:00:57.378Z,19.58
2023-02-11T15:03:29.363Z,20.45
2023-02-11T15:06:19.776Z,19.73
2023-02-11T15:09:01.035Z,18.60
2023-02-11T15:11:30.422Z,20.65
2023-02-11T15:13:57.680Z,20.67
2023-02-11T15:16:25.630Z,20.85
2023-02-11T15:18:58.578Z,20.63
2023-02-11T15:21:30.289Z,22.85
2023-02-11T15:24:21.006Z,18.27
2023-02-11T15:27:03.905Z,19.20
2023-02-11T15:29:38.479Z,20.42
2023-02-11T15:32:15.308Z,22.40
2023-02-11T15:34:43.343Z,18.30
2023-02-11T15:37:13.949Z,20.67
2023-02-11T15:39:41.619Z,23.05
2023-02-11T15:42:28.363Z,21.63
2023-02-11T15:45:08.621Z,21.83
2023-02-11T15:47:35.657Z,22.40
2023-02-11T15:50:02.669Z,23.48
2023-02-11T15:52:29.621Z,21.45
2023-02-11T15:54:56.860Z,19.35
2023-02-11T15:57:23.850Z,20.95
2023-02-11T15:59:54.666Z,19.00
2023-02-11T16:02:31.678Z,21.08
2023-02-11T16:05:06.278Z,17.67
2023-02-11T16:07:47.391Z,23.58
2023-02-11T16:10:21.580Z,26.05
2023-02-11T16:12:56.122Z,19.58
2023-02-11T16:15:38.284Z,20.63
2023-02-11T16:18:13.708Z,19.40
2023-02-11T16:20:40.674Z,22.35
2023-02-11T16:23:07.731Z,20.45
2023-02-11T16:25:35.209Z,21.38
2023-02-11T16:28:02.395Z,19.85
2023-02-11T16:30:37.720Z,18.10
2023-02-11T16:33:05.597Z,21.70
2023-02-11T16:35:32.647Z,23.40
2023-02-11T16:37:59.597Z,20.90
2023-02-11T16:40:26.601Z,22.15
2023-02-11T16:42:53.696Z,21.58
2023-02-11T16:45:20.944Z,20.73
2023-02-11T16:47:48.047Z,23.85
2023-02-11T16:50:22.637Z,21.92
2023-02-11T16:52:49.829Z,17.48
2023-02-11T16:55:16.818Z,20.38
2023-02-11T16:57:43.770Z,24.00
2023-02-11T17:00:11.612Z,21.13
2023-02-11T17:02:38.555Z,26.23
2023-02-11T17:05:07.694Z,23.35
2023-02-11T17:07:34.639Z,22.63
2023-02-11T17:10:02.246Z,24.05
2023-02-11T17:12:29.205Z,22.83
2023-02-11T17:14:56.275Z,20.73
2023-02-11T17:17:23.920Z,24.17
2023-02-11T17:19:51.455Z,22.55
2023-02-11T17:22:18.818Z,19.90
2023-02-11T17:24:45.859Z,19.02
2023-02-11T17:27:12.910Z,19.98
2023-02-11T17:29:39.851Z,23.65
2023-02-11T17:32:06.870Z,24.63
2023-02-11T17:34:33.846Z,22.02
2023-02-11T17:37:03.183Z,26.08
2023-02-11T17:39:30.133Z,20.30
2023-02-11T17:41:57.131Z,25.63
2023-02-11T17:44:24.041Z,23.95
2023-02-11T17:46:51.066Z,24.45
2023-02-11T17:49:18.005Z,31.60
2023-02-11T17:51:45.162Z,24.80
2023-02-11T17:54:13.726Z,26.08
2023-02-11T17:56:41.107Z,24.17
2023-02-11T17:59:08.650Z,27.35
2023-02-11T18:01:36.435Z,25.58
2023-02-11T18:04:03.441Z,21.80
2023-02-11T18:06:30.428Z,27.77
2023-02-11T18:08:59.767Z,25.05
2023-02-11T18:11:27.942Z,24.25
2023-02-11T18:13:55.129Z,26.85
2023-02-11T18:16:23.021Z,24.45
2023-02-11T18:18:51.226Z,25.35
2023-02-11T18:21:19.719Z,29.02
2023-02-11T18:23:47.164Z,26.38
2023-02-11T18:26:14.614Z,23.77
2023-02-11T18:28:44.523Z,26.48
2023-02-11T18:31:13.945Z,25.83
2023-02-11T18:33:41.108Z,29.02
2023-02-11T18:36:11.816Z,26.45
2023-02-11T18:38:39.247Z,26.60
2023-02-11T18:41:07.613Z,24.98
2023-02-11T18:43:34.954Z,26.90
2023-02-11T18:46:02.599Z,26.23
2023-02-11T18:48:29.668Z,26.95
2023-02-11T18:50:56.627Z,25.50
2023-02-11T18:53:24.724Z,28.35
2023-02-11T18:55:52.559Z,26.65
2023-02-11T18:58:21.449Z,27.40
2023-02-11T19:00:49.419Z,28.00
2023-02-11T19:03:16.902Z,25.65
2023-02-11T19:05:48.513Z,27.52
2023-02-11T19:08:16.001Z,26.73
2023-02-11T19:10:44.465Z,27.65
2023-02-11T19:13:12.057Z,26.10
2023-02-11T19:15:42.640Z,25.90
2023-02-11T19:18:09.836Z,23.33
2023-02-11T19:20:39.523Z,27.33
2023-02-11T19:23:07.094Z,25.52
2023-02-11T19:25:34.627Z,26.25
2023-02-11T19:28:01.653Z,28.65
2023-02-11T19:30:28.805Z,28.35
2023-02-11T19:32:57.328Z,24.48
2023-02-11T19:35:24.829Z,28.85
2023-02-11T19:37:51.847Z,27.08
2023-02-11T19:40:19.289Z,25.33
2023-02-11T19:42:46.261Z,26.30
2023-02-11T19:45:13.189Z,28.77
2023-02-11T19:47:40.124Z,31.02
2023-02-11T19:50:07.780Z,26.85
2023-02-11T19:52:37.076Z,27.15
2023-02-11T19:55:04.165Z,26.92
2023-02-11T19:57:31.106Z,26.80
2023-02-11T19:59:58.156Z,29.50
2023-02-11T20:02:25.124Z,24.52
2023-02-11T20:04:52.410Z,28.80
2023-02-11T20:07:19.354Z,25.95
2023-02-11T20:09:46.307Z,26.27
2023-02-11T20:12:13.840Z,23.58
2023-02-11T20:14:41.358Z,23.02
2023-02-11T20:17:08.367Z,27.67
2023-02-11T20:19:35.334Z,26.67
2023-02-11T20:22:02.317Z,28.15
2023-02-11T20:24:29.326Z,25.70
2023-02-11T20:26:56.585Z,29.27
2023-02-11T20:29:24.507Z,30.95
2023-02-11T20:31:51.533Z,25.52
2023-02-11T20:34:18.852Z,27.90
2023-02-11T20:36:51.991Z,28.52
2023-02-11T20:39:21.897Z,23.80
2023-02-11T20:41:49.063Z,25.80
2023-02-11T20:44:16.081Z,34.53
2023-02-11T20:46:45.941Z,27.35
2023-02-11T20:49:19.048Z,25.85
2023-02-11T20:51:46.210Z,25.70
2023-02-11T20:54:17.966Z,31.67
2023-02-11T20:56:47.844Z,26.60
2023-02-11T20:59:16.472Z,25.33
2023-02-11T21:01:45.797Z,26.55
2023-02-11T21:04:15.329Z,29.48
2023-02-11T21:06:44.766Z,29.17
2023-02-11T21:09:16.571Z,31.33
2023-02-11T21:11:43.609Z,27.73
2023-02-11T21:14:11.145Z,29.48
2023-02-11T21:16:38.290Z,30.55
2023-02-11T21:19:05.441Z,28.63
2023-02-11T21:21:32.445Z,32.25
2023-02-11T21:23:59.392Z,29.92
2023-02-11T21:26:26.485Z,31.58
2023-02-11T21:28:55.163Z,28.48
2023-02-11T21:31:27.630Z,30.02
2023-02-11T21:33:55.460Z,32.47
2023-02-11T21:36:23.238Z,28.10
2023-02-11T21:38:50.218Z,35.70
2023-02-11T21:41:17.939Z,29.67
2023-02-11T21:43:45.070Z,28.98
2023-02-11T21:46:13.242Z,36.78
2023-02-11T21:48:40.222Z,29.25
2023-02-11T21:51:08.766Z,31.05
2023-02-11T21:53:35.763Z,32.30
2023-02-11T21:56:14.116Z,29.48
2023-02-11T21:58:41.158Z,30.50
2023-02-11T22:01:12.037Z,32.20
2023-02-11T22:03:39.251Z,31.23
2023-02-11T22:06:10.253Z,28.33
2023-02-11T22:08:37.779Z,28.27
2023-02-11T22:11:05.689Z,28.80
2023-02-11T22:13:32.877Z,30.90
2023-02-11T22:16:05.327Z,32.75
2023-02-11T22:18:32.424Z,27.83
2023-02-11T22:21:18.699Z,29.08
2023-02-11T22:23:45.847Z,26.90
2023-02-11T22:26:15.320Z,29.45
2023-02-11T22:28:42.694Z,27.80
2023-02-11T22:31:20.722Z,27.08
2023-02-11T22:33:47.843Z,31.05
2023-02-11T22:36:19.987Z,30.92
2023-02-11T22:38:47.067Z,26.95
2023-02-11T22:41:14.212Z,28.38
2023-02-11T22:43:42.154Z,29.95
2023-02-11T22:46:09.566Z,26.73
2023-02-11T22:48:36.613Z,32.40
2023-02-11T22:51:27.311Z,28.80
2023-02-11T22:53:55.982Z,30.83
2023-02-11T22:56:23.110Z,28.80
2023-02-11T22:58:50.311Z,29.83
2023-02-11T23:01:17.577Z,26.52
2023-02-11T23:03:44.653Z,24.40
2023-02-11T23:06:11.649Z,24.80
2023-02-11T23:08:39.792Z,26.75
2023-02-11T23:11:12.142Z,30.10
2023-02-11T23:13:40.032Z,29.20
2023-02-11T23:16:08.699Z,27.20
2023-02-11T23:18:38.930Z,23.60
2023-02-11T23:21:16.576Z,30.92
2023-02-11T23:23:43.729Z,27.20
2023-02-11T23:26:11.769Z,24.27
2023-02-11T23:28:39.480Z,26.10
2023-02-11T23:31:26.547Z,24.42
2023-02-11T23:33:53.633Z,25.38
2023-02-11T23:36:20.975Z,27.55
2023-02-11T23:38:48.088Z,27.55
2023-02-11T23:41:15.277Z,26.17
2023-02-11T23:43:42.397Z,28.92
2023-02-11T23:46:09.512Z,28.80
2023-02-11T23:48:37.941Z,27.10
2023-02-11T23:51:05.160Z,27.13
2023-02-11T23:53:32.116Z,24.33
2023-02-11T23:55:59.105Z,28.67
2023-02-11T23:58:26.044Z,28.88
